Time;durP1;ratioP1;P1;durP2;ratioP2;P2;SDS_P1;SDS_P2;PMS_P1;PMS_P2;Temp;Humidity;BMP_temperature;BMP_pressure;BME280_temperature;BME280_humidity;BME280_pressure;Samples;Min_cycle;Max_cycle;Signal;HPM_P1;HPM_P2
2022/03/30 00:02:20;;;;;;;14.73;8.32;;;;;;;29.64;16.27;97204.09;5044864;28;20040;-78
2022/03/30 00:04:48;;;;;;;14.43;8.55;;;;;;;29.72;16.21;97196.75;5046403;28;20075;-78
2022/03/30 00:07:14;;;;;;;10.77;6.90;;;;;;;29.74;16.05;97193.41;5042135;28;20056;-78
2022/03/30 00:09:40;;;;;;;12.15;6.78;;;;;;;29.15;16.68;97192.78;5041878;28;20048;-78
2022/03/30 00:12:07;;;;;;;11.07;6.15;;;;;;;28.93;17.14;97187.56;5041781;28;20044;-77
2022/03/30 00:14:36;;;;;;;11.60;6.53;;;;;;;29.18;16.79;97200.31;5037790;28;20053;-77
2022/03/30 00:17:02;;;;;;;10.48;6.53;;;;;;;29.28;16.78;97198.94;5035929;28;20029;-78
2022/03/30 00:19:29;;;;;;;11.40;6.60;;;;;;;29.25;16.75;97197.88;5042915;28;20125;-77
2022/03/30 00:21:55;;;;;;;13.55;6.85;;;;;;;29.14;16.81;97192.00;5041419;28;20037;-77
2022/03/30 00:24:21;;;;;;;10.60;6.32;;;;;;;28.92;16.95;97188.81;5024800;28;20146;-78
2022/03/30 00:26:47;;;;;;;13.82;7.13;;;;;;;28.58;17.51;97189.47;5040065;28;20072;-78
2022/03/30 00:29:13;;;;;;;11.43;6.22;;;;;;;27.99;17.78;97183.72;5026720;28;20083;-77
2022/03/30 00:31:39;;;;;;;13.70;7.10;;;;;;;27.90;18.25;97175.28;5037905;28;20063;-77
2022/03/30 00:34:05;;;;;;;11.15;6.53;;;;;;;28.33;17.91;97184.38;5039811;28;20510;-77
2022/03/30 00:36:32;;;;;;;9.27;6.05;;;;;;;28.56;17.37;97175.06;5040749;28;20029;-78
2022/03/30 00:38:58;;;;;;;13.57;6.90;;;;;;;28.55;17.47;97174.28;5038749;28;20553;-77
2022/03/30 00:41:27;;;;;;;12.13;6.85;;;;;;;28.53;17.33;97165.50;5035722;28;20033;-78
2022/03/30 00:43:53;;;;;;;11.85;7.35;;;;;;;28.41;17.68;97160.91;5040161;28;20107;-77
2022/03/30 00:46:20;;;;;;;12.48;7.30;;;;;;;28.63;17.36;97163.41;5022087;28;20030;-78
2022/03/30 00:48:46;;;;;;;14.07;8.43;;;;;;;28.86;16.91;97165.34;5039791;28;20025;-78
2022/03/30 00:51:12;;;;;;;13.75;7.18;;;;;;;29.09;17.02;97155.16;5036035;28;20061;-77
2022/03/30 00:53:38;;;;;;;13.05;7.07;;;;;;;28.70;17.06;97151.72;5033269;28;20142;-78
2022/03/30 00:56:06;;;;;;;11.18;6.35;;;;;;;28.10;17.78;97152.09;5042045;28;20036;-77
2022/03/30 00:58:33;;;;;;;11.00;6.85;;;;;;;27.51;18.70;97142.66;5038348;28;20505;-77
2022/03/30 01:00:59;;;;;;;11.45;6.95;;;;;;;27.64;18.51;97140.38;5039754;28;20111;-77
2022/03/30 01:03:25;;;;;;;9.90;6.50;;;;;;;28.06;18.07;97149.47;5040367;28;20041;-78
2022/03/30 01:05:51;;;;;;;11.18;6.18;;;;;;;28.23;17.63;97155.44;5041444;28;20488;-77
2022/03/30 01:08:18;;;;;;;11.88;7.43;;;;;;;28.43;17.48;97149.91;5023684;28;20111;-77
2022/03/30 01:10:44;;;;;;;15.70;8.00;;;;;;;28.57;17.13;97151.97;5037857;28;20084;-77
2022/03/30 01:13:10;;;;;;;14.93;8.45;;;;;;;28.88;16.87;97150.72;5038457;28;20033;-77
2022/03/30 01:15:37;;;;;;;13.90;7.82;;;;;;;29.03;16.74;97143.00;5020940;28;20052;-78
2022/03/30 01:18:03;;;;;;;15.40;8.73;;;;;;;29.14;16.66;97146.78;5034856;28;20033;-77
2022/03/30 01:20:29;;;;;;;16.13;8.52;;;;;;;29.21;16.57;97135.09;5020977;28;20037;-77
2022/03/30 01:22:55;;;;;;;14.82;8.57;;;;;;;29.36;16.37;97138.63;5041140;28;20043;-77
2022/03/30 01:25:22;;;;;;;14.40;8.43;;;;;;;29.52;16.17;97130.88;5036707;28;20033;-77
2022/03/30 01:27:48;;;;;;;13.82;8.15;;;;;;;29.61;16.07;97140.03;5041114;28;20036;-77
2022/03/30 01:33:04;;;;;;;14.45;7.63;;;;;;;29.70;16.14;97131.38;5039465;28;20048;-77
2022/03/30 01:35:31;;;;;;;11.23;7.18;;;;;;;29.28;16.50;97123.38;5024775;28;20030;-77
2022/03/30 01:37:57;;;;;;;15.98;7.43;;;;;;;28.64;17.45;97131.03;5040365;28;20454;-77
2022/03/30 01:40:24;;;;;;;10.82;7.07;;;;;;;28.29;17.55;97135.78;5040347;28;20035;-77
2022/03/30 01:42:50;;;;;;;12.15;5.90;;;;;;;28.31;17.64;97131.22;5041022;28;20083;-77
2022/03/30 01:45:16;;;;;;;11.38;6.13;;;;;;;28.34;17.47;97118.94;5040481;28;20124;-77
2022/03/30 01:47:51;;;;;;;12.15;6.50;;;;;;;28.27;17.50;97119.34;5042795;28;20440;-77
2022/03/30 01:50:17;;;;;;;13.10;7.95;;;;;;;28.55;17.47;97117.00;5035930;28;20040;-77
2022/03/30 01:52:43;;;;;;;11.77;7.47;;;;;;;28.84;17.25;97105.72;5041484;28;20029;-77
2022/03/30 01:55:10;;;;;;;13.65;8.20;;;;;;;28.47;16.86;97107.38;5039697;28;22329;-78
2022/03/30 01:57:36;;;;;;;13.38;7.40;;;;;;;28.13;17.76;97102.38;5039963;28;20099;-77
2022/03/30 02:00:04;;;;;;;12.32;7.00;;;;;;;28.33;17.40;97102.50;5041535;28;20053;-77
2022/03/30 02:02:30;;;;;;;15.38;7.40;;;;;;;28.47;17.15;97098.91;5039984;28;20033;-77
2022/03/30 02:04:57;;;;;;;13.23;7.95;;;;;;;28.81;16.92;97095.38;5024026;28;20037;-77
2022/03/30 02:07:23;;;;;;;13.63;7.80;;;;;;;28.97;16.92;97094.06;5040221;28;20095;-77
2022/03/30 02:09:49;;;;;;;14.05;8.35;;;;;;;29.17;16.65;97091.31;5039269;28;20029;-78
2022/03/30 02:12:16;;;;;;;13.15;6.95;;;;;;;28.92;16.94;97089.91;5040192;28;20094;-77
2022/03/30 02:14:42;;;;;;;17.27;8.48;;;;;;;29.08;16.46;97097.84;5042689;28;20116;-77
2022/03/30 02:17:09;;;;;;;14.55;8.18;;;;;;;29.28;16.42;97091.47;5040547;28;20029;-77
2022/03/30 02:19:35;;;;;;;15.55;8.32;;;;;;;29.39;16.52;97092.41;5042696;28;21300;-78
2022/03/30 02:22:01;;;;;;;12.00;7.50;;;;;;;29.22;16.47;97085.75;5037104;28;20033;-78
2022/03/30 02:24:27;;;;;;;13.75;8.68;;;;;;;28.56;17.42;97085.47;5038920;28;20120;-77
2022/03/30 02:26:53;;;;;;;12.38;7.82;;;;;;;28.11;17.80;97088.75;5043822;28;20025;-77
2022/03/30 02:29:19;;;;;;;15.57;8.18;;;;;;;28.48;17.00;97089.16;5037654;28;20489;-77
2022/03/30 02:31:47;;;;;;;12.98;8.40;;;;;;;28.77;16.96;97083.50;5041547;28;20485;-77
2022/03/30 02:34:13;;;;;;;13.50;7.47;;;;;;;29.02;16.89;97082.84;5040275;28;20498;-77
2022/03/30 02:36:40;;;;;;;13.30;7.53;;;;;;;29.15;16.75;97071.22;5036422;28;20160;-77
2022/03/30 02:39:07;;;;;;;14.23;8.50;;;;;;;29.30;16.43;97077.63;5039583;28;20075;-77
2022/03/30 02:41:34;;;;;;;13.85;8.15;;;;;;;29.27;16.63;97070.91;5040207;28;20100;-77
2022/03/30 02:44:00;;;;;;;12.40;7.00;;;;;;;28.90;16.79;97072.66;5041558;28;20064;-78
2022/03/30 02:46:26;;;;;;;14.85;8.68;;;;;;;28.36;17.38;97079.72;5040218;28;20033;-77
2022/03/30 02:48:52;;;;;;;12.80;7.55;;;;;;;27.84;17.89;97072.06;5043146;28;20033;-77
2022/03/30 02:51:18;;;;;;;10.60;7.05;;;;;;;27.66;18.11;97075.81;5026692;28;20420;-77
2022/03/30 02:53:45;;;;;;;11.48;7.57;;;;;;;28.17;17.74;97077.59;5045384;28;20400;-78
2022/03/30 02:56:11;;;;;;;16.38;7.93;;;;;;;28.21;17.51;97064.81;5045328;28;20061;-77
2022/03/30 02:58:37;;;;;;;11.43;6.97;;;;;;;28.22;17.41;97072.03;5043478;28;20245;-77
2022/03/30 03:01:04;;;;;;;16.95;8.50;;;;;;;28.55;17.09;97072.59;5028949;28;20068;-78
2022/03/30 03:03:30;;;;;;;13.23;8.20;;;;;;;28.70;17.07;97069.78;5043001;28;20405;-78
2022/03/30 03:05:56;;;;;;;13.82;7.78;;;;;;;28.45;17.23;97071.13;5045689;28;20047;-78
2022/03/30 03:08:22;;;;;;;14.23;7.97;;;;;;;28.65;16.76;97067.66;5040572;28;20139;-77
2022/03/30 03:10:50;;;;;;;13.63;8.52;;;;;;;28.87;17.15;97065.16;5046787;28;20033;-77
2022/03/30 03:13:17;;;;;;;16.42;7.85;;;;;;;29.01;16.71;97063.56;5042471;28;20029;-77
2022/03/30 03:15:46;;;;;;;12.50;7.90;;;;;;;29.07;16.56;97067.25;5040122;28;20048;-78
2022/03/30 03:18:13;;;;;;;16.52;8.60;;;;;;;29.17;16.43;97065.84;5044242;28;20047;-78
2022/03/30 03:20:42;;;;;;;13.82;8.43;;;;;;;29.16;16.27;97069.94;5042245;28;20055;-77
2022/03/30 03:23:10;;;;;;;13.95;8.32;;;;;;;28.99;16.83;97071.75;5044521;28;20037;-77
2022/03/30 03:25:37;;;;;;;19.45;8.48;;;;;;;28.44;17.55;97071.63;5042267;28;20504;-77
2022/03/30 03:28:05;;;;;;;13.30;8.40;;;;;;;28.57;17.44;97070.06;5039752;28;20056;-77
2022/03/30 03:30:31;;;;;;;15.68;8.55;;;;;;;28.79;16.94;97074.53;5042793;28;20037;-77
2022/03/30 03:32:59;;;;;;;14.30;8.73;;;;;;;28.92;16.93;97067.28;5041095;28;20422;-77
2022/03/30 03:35:26;;;;;;;13.45;8.35;;;;;;;28.77;17.00;97069.38;5042560;28;20072;-77
2022/03/30 03:37:52;;;;;;;15.77;8.27;;;;;;;28.79;16.83;97072.50;5044292;28;20079;-77
2022/03/30 03:40:18;;;;;;;16.92;9.95;;;;;;;28.98;17.00;97070.19;5038856;28;20068;-77
2022/03/30 03:42:44;;;;;;;15.57;8.65;;;;;;;29.03;16.64;97066.69;5043052;28;20403;-77
2022/03/30 03:45:11;;;;;;;13.95;7.45;;;;;;;28.42;17.24;97072.13;5040092;28;20075;-77
2022/03/30 03:47:37;;;;;;;15.60;9.55;;;;;;;28.37;17.06;97077.66;5037986;28;20063;-77
2022/03/30 03:50:04;;;;;;;16.98;8.63;;;;;;;28.66;16.82;97072.00;5044350;28;20079;-77
2022/03/30 03:52:31;;;;;;;15.43;9.07;;;;;;;28.89;16.63;97076.75;5042220;28;20030;-77
2022/03/30 03:54:57;;;;;;;14.10;7.75;;;;;;;29.09;16.59;97071.16;5043747;28;20477;-77
2022/03/30 03:57:23;;;;;;;12.23;7.55;;;;;;;29.17;16.44;97082.81;5042819;28;20051;-77
2022/03/30 03:59:49;;;;;;;16.23;8.77;;;;;;;29.10;16.73;97071.94;5043771;28;20045;-78
2022/03/30 04:02:15;;;;;;;14.50;8.45;;;;;;;28.71;16.84;97071.31;5044159;28;20111;-77
2022/03/30 04:04:43;;;;;;;16.52;9.13;;;;;;;28.05;17.56;97074.53;5042072;28;20046;-77
2022/03/30 04:07:10;;;;;;;17.45;8.68;;;;;;;27.64;17.79;97069.88;5040899;28;20108;-77
2022/03/30 04:09:36;;;;;;;13.02;8.23;;;;;;;27.49;18.33;97066.25;5038937;28;20045;-77
2022/03/30 04:12:03;;;;;;;12.68;8.50;;;;;;;27.51;18.28;97068.56;5041644;28;20037;-78
2022/03/30 04:14:29;;;;;;;15.18;8.55;;;;;;;27.93;17.30;97066.34;5041825;28;20108;-77
2022/03/30 04:16:55;;;;;;;15.88;8.90;;;;;;;28.00;17.39;97068.81;5042558;28;20025;-78
2022/03/30 04:19:21;;;;;;;16.30;8.43;;;;;;;27.83;17.52;97070.50;5024564;28;20082;-78
2022/03/30 04:21:47;;;;;;;11.98;7.75;;;;;;;28.02;17.54;97063.44;5043928;28;20098;-78
2022/03/30 04:24:14;;;;;;;15.80;9.88;;;;;;;27.90;17.85;97065.25;5041765;28;20033;-78
2022/03/30 04:26:40;;;;;;;13.52;8.30;;;;;;;27.63;17.98;97065.50;5040276;28;20033;-79
2022/03/30 04:29:06;;;;;;;16.33;9.45;;;;;;;27.85;17.39;97067.97;5043501;28;20083;-78
2022/03/30 04:31:33;;;;;;;16.15;9.80;;;;;;;27.91;17.79;97074.50;5043264;28;20426;-78
2022/03/30 04:33:59;;;;;;;15.00;8.55;;;;;;;28.08;17.13;97069.97;5042137;28;20059;-78
2022/03/30 04:36:26;;;;;;;17.77;9.68;;;;;;;28.06;17.20;97070.47;5041435;28;20044;-78
2022/03/30 04:38:53;;;;;;;14.18;8.95;;;;;;;28.02;17.19;97071.91;5039344;28;20060;-78
2022/03/30 04:41:20;;;;;;;16.92;8.32;;;;;;;28.05;17.17;97068.88;5026000;28;20033;-77
2022/03/30 04:43:46;;;;;;;15.93;9.35;;;;;;;28.06;17.20;97066.84;5040412;28;20431;-77
2022/03/30 04:46:13;;;;;;;14.05;7.88;;;;;;;27.89;17.27;97062.94;5045743;28;20036;-77
2022/03/30 04:48:39;;;;;;;12.25;7.93;;;;;;;28.05;17.33;97077.34;5045100;28;20033;-76
2022/03/30 04:51:06;;;;;;;16.83;8.93;;;;;;;28.08;17.54;97072.03;5043411;28;20033;-77
2022/03/30 04:53:32;;;;;;;15.38;7.80;;;;;;;28.04;17.55;97069.38;5043449;28;20041;-77
2022/03/30 04:55:58;;;;;;;17.00;9.25;;;;;;;28.10;17.18;97070.25;5041481;28;20040;-77
2022/03/30 04:58:25;;;;;;;20.23;10.30;;;;;;;28.12;17.43;97064.94;5042106;28;20045;-77
2022/03/30 05:00:51;;;;;;;16.85;9.07;;;;;;;28.18;17.16;97065.00;5046236;28;20510;-79
2022/03/30 05:03:17;;;;;;;13.82;8.48;;;;;;;28.04;17.42;97064.53;5041584;28;20029;-77
2022/03/30 05:05:44;;;;;;;16.98;10.25;;;;;;;27.81;17.33;97070.19;5041742;28;20036;-77
2022/03/30 05:08:10;;;;;;;15.20;8.35;;;;;;;27.42;17.60;97060.97;5038849;28;20119;-77
2022/03/30 05:10:55;;;;;;;15.13;8.57;;;;;;;27.39;17.74;97067.56;5037135;28;20029;-77
2022/03/30 05:13:21;;;;;;;13.30;8.30;;;;;;;27.60;17.79;97066.47;5041211;28;20431;-76
2022/03/30 05:15:47;;;;;;;14.93;9.13;;;;;;;27.55;17.75;97063.53;5039563;28;20061;-77
2022/03/30 05:18:13;;;;;;;17.45;9.07;;;;;;;27.50;17.77;97064.97;5038772;28;20041;-77
2022/03/30 05:20:43;;;;;;;14.40;8.48;;;;;;;27.40;17.97;97072.72;5042944;28;20025;-77
2022/03/30 05:23:09;;;;;;;18.35;8.98;;;;;;;27.25;18.03;97071.06;5040474;28;20025;-76
2022/03/30 05:25:35;;;;;;;17.88;8.82;;;;;;;27.06;18.02;97072.44;5040288;28;20034;-76
2022/03/30 05:28:01;;;;;;;16.88;8.88;;;;;;;26.93;18.25;97069.88;5040755;28;20028;-77
2022/03/30 05:30:28;;;;;;;16.50;7.95;;;;;;;26.91;18.18;97066.72;5041976;28;20033;-77
2022/03/30 05:32:54;;;;;;;16.48;9.45;;;;;;;26.83;18.43;97068.34;5043233;28;20492;-76
2022/03/30 05:35:20;;;;;;;15.05;8.63;;;;;;;26.77;18.69;97069.47;5041090;28;20112;-77
2022/03/30 05:37:47;;;;;;;16.67;8.80;;;;;;;26.82;18.52;97074.44;5036332;28;20441;-77
2022/03/30 05:40:15;;;;;;;14.48;8.43;;;;;;;27.26;18.13;97069.81;5041860;28;20078;-77
2022/03/30 05:42:41;;;;;;;15.02;9.18;;;;;;;27.89;17.38;97072.16;5042061;28;20026;-77
2022/03/30 05:45:08;;;;;;;16.92;9.55;;;;;;;28.23;17.07;97075.63;5041691;28;20053;-77
2022/03/30 05:47:34;;;;;;;17.98;9.73;;;;;;;28.50;17.04;97061.19;5042126;28;20139;-77
2022/03/30 05:50:01;;;;;;;18.17;10.38;;;;;;;28.69;16.76;97065.38;5038223;28;20499;-77
2022/03/30 05:52:27;;;;;;;18.45;10.10;;;;;;;28.56;16.67;97073.38;5040784;28;24334;-77
2022/03/30 05:54:53;;;;;;;18.92;11.00;;;;;;;28.54;17.24;97070.28;5044302;28;20039;-77
2022/03/30 05:57:21;;;;;;;16.73;9.85;;;;;;;28.52;17.21;97072.81;5040696;28;20489;-77
2022/03/30 05:59:51;;;;;;;21.00;11.55;;;;;;;28.58;17.26;97077.28;5039647;28;20037;-77
2022/03/30 06:02:17;;;;;;;22.15;11.05;;;;;;;28.68;16.83;97077.97;5037931;28;20615;-77
2022/03/30 06:04:45;;;;;;;26.13;13.15;;;;;;;28.42;17.33;97079.81;5039626;28;20556;-77
2022/03/30 06:07:11;;;;;;;17.95;9.95;;;;;;;28.12;17.41;97076.22;5043473;28;20673;-77
2022/03/30 06:09:38;;;;;;;15.52;9.27;;;;;;;28.03;17.94;97074.25;5039234;28;20041;-77
2022/03/30 06:12:04;;;;;;;17.15;9.60;;;;;;;27.96;17.83;97071.78;5043997;28;20032;-77
2022/03/30 06:14:31;;;;;;;15.50;10.30;;;;;;;27.83;17.86;97073.31;5042179;28;20044;-78
2022/03/30 06:16:58;;;;;;;20.58;11.00;;;;;;;27.80;18.24;97074.28;5043577;28;20032;-79
2022/03/30 06:19:24;;;;;;;17.17;11.02;;;;;;;27.73;18.34;97072.59;5040485;28;20029;-78
2022/03/30 06:21:51;;;;;;;18.95;8.85;;;;;;;27.79;18.38;97070.69;5043463;28;20460;-77
2022/03/30 06:24:17;;;;;;;20.73;12.75;;;;;;;27.53;18.58;97066.84;5047906;28;20039;-77
2022/03/30 06:26:44;;;;;;;19.13;11.57;;;;;;;27.66;18.18;97066.56;5043465;28;20476;-77
2022/03/30 06:29:12;;;;;;;19.92;11.60;;;;;;;27.58;18.23;97069.00;5047418;28;20040;-78
2022/03/30 06:31:40;;;;;;;17.95;12.02;;;;;;;27.56;18.56;97070.72;5046424;28;20496;-78
2022/03/30 06:34:06;;;;;;;15.75;10.10;;;;;;;27.74;18.01;97068.53;5042258;28;20037;-76
2022/03/30 06:36:33;;;;;;;17.25;9.85;;;;;;;28.08;17.87;97069.97;5044307;28;20493;-77
2022/03/30 06:39:00;;;;;;;18.17;10.45;;;;;;;28.58;17.43;97068.00;5046367;28;20488;-77
2022/03/30 06:41:26;;;;;;;16.48;9.98;;;;;;;28.40;17.32;97060.50;5043232;28;20041;-76
2022/03/30 06:43:52;;;;;;;16.75;9.85;;;;;;;28.29;16.88;97071.63;5045018;28;20052;-76
2022/03/30 06:46:19;;;;;;;15.80;9.15;;;;;;;28.10;17.51;97067.44;5033537;28;20427;-76
2022/03/30 06:48:46;;;;;;;19.70;9.38;;;;;;;28.33;17.46;97069.41;5038702;28;20033;-76
2022/03/30 06:51:14;;;;;;;16.25;10.57;;;;;;;28.37;16.90;97060.72;5045818;28;20072;-76
2022/03/30 06:53:41;;;;;;;21.00;12.70;;;;;;;27.97;17.42;97064.09;5045490;28;20037;-76
2022/03/30 06:56:08;;;;;;;17.63;10.57;;;;;;;27.54;18.25;97062.75;5046216;28;20025;-76
2022/03/30 06:58:35;;;;;;;16.08;8.90;;;;;;;28.15;17.46;97065.97;5046887;28;20075;-76
2022/03/30 07:01:01;;;;;;;15.27;9.15;;;;;;;28.63;16.84;97068.16;5038915;28;20742;-77
2022/03/30 07:03:28;;;;;;;14.65;8.45;;;;;;;28.79;15.64;97060.41;5045495;28;20179;-77
2022/03/30 07:05:55;;;;;;;12.65;8.07;;;;;;;28.94;15.59;97055.50;5031574;28;20045;-76
2022/03/30 07:11:06;;;;;;;14.55;9.13;;;;;;;27.75;15.48;97072.91;5049000;28;20048;-76
2022/03/30 07:13:32;;;;;;;15.77;8.18;;;;;;;28.04;14.96;97072.22;5047421;28;20033;-76
2022/03/30 07:15:59;;;;;;;12.80;6.85;;;;;;;27.85;14.60;97076.44;5047778;28;20178;-76
2022/03/30 07:18:26;;;;;;;10.75;7.05;;;;;;;28.08;14.62;97078.44;5048639;28;20602;-77
2022/03/30 07:20:52;;;;;;;10.70;7.63;;;;;;;28.14;14.78;97068.03;5048925;28;20044;-76
2022/03/30 07:23:20;;;;;;;13.55;6.50;;;;;;;28.39;14.90;97064.63;5045012;28;20071;-77
2022/03/30 07:25:46;;;;;;;10.65;6.53;;;;;;;28.93;14.87;97054.72;5048793;28;20605;-77
2022/03/30 07:28:15;;;;;;;16.42;8.98;;;;;;;28.42;14.93;97065.69;5049859;28;20044;-77
2022/03/30 07:30:43;;;;;;;15.25;8.05;;;;;;;26.38;15.88;97058.03;5049474;28;20025;-77
2022/03/30 07:33:09;;;;;;;10.57;6.70;;;;;;;25.59;16.63;97064.06;5048504;28;20021;-77
2022/03/30 07:35:36;;;;;;;13.07;7.93;;;;;;;26.54;15.67;97068.91;5048721;28;20481;-77
2022/03/30 07:38:03;;;;;;;10.43;6.30;;;;;;;27.69;15.21;97066.38;5052182;28;20045;-77
2022/03/30 07:40:29;;;;;;;12.88;8.23;;;;;;;28.22;14.41;97074.06;5050262;28;20060;-77
2022/03/30 07:42:56;;;;;;;12.05;6.57;;;;;;;28.93;14.64;97066.03;5041245;28;20496;-77
2022/03/30 07:45:24;;;;;;;11.23;6.57;;;;;;;29.42;14.26;97065.97;5046800;28;20021;-77
2022/03/30 07:47:51;;;;;;;13.88;7.32;;;;;;;29.94;13.43;97064.03;5047661;28;20067;-77
2022/03/30 07:50:17;;;;;;;13.55;7.15;;;;;;;30.07;14.03;97058.00;5050972;28;20120;-77
2022/03/30 07:52:45;;;;;;;12.27;7.57;;;;;;;30.15;13.21;97061.94;5029533;28;20070;-77
2022/03/30 07:55:12;;;;;;;12.38;7.25;;;;;;;30.24;13.21;97050.44;5033930;28;20473;-77
2022/03/30 07:57:42;;;;;;;11.30;6.65;;;;;;;30.09;13.30;97053.38;5044337;28;20045;-77
2022/03/30 08:00:17;;;;;;;15.40;9.98;;;;;;;29.37;13.61;97051.75;5045529;28;20091;-77
2022/03/30 08:02:47;;;;;;;13.70;7.75;;;;;;;29.65;14.10;97052.09;5047187;28;20064;-77
2022/03/30 08:05:14;;;;;;;13.27;7.50;;;;;;;29.70;14.04;97049.34;5054244;28;20124;-77
2022/03/30 08:07:43;;;;;;;16.33;9.48;;;;;;;29.37;14.27;97046.88;5054144;28;20025;-77
2022/03/30 08:10:10;;;;;;;12.23;8.65;;;;;;;28.12;14.70;97053.63;5051898;28;20068;-77
2022/03/30 08:12:42;;;;;;;13.70;8.45;;;;;;;28.75;15.08;97050.06;5047834;28;20480;-77
2022/03/30 08:15:12;;;;;;;14.10;9.27;;;;;;;29.36;14.06;97045.31;5044949;28;20051;-78
2022/03/30 08:17:38;;;;;;;18.38;10.27;;;;;;;28.90;14.44;97057.75;5051699;28;20044;-77
2022/03/30 08:20:05;;;;;;;13.32;9.25;;;;;;;28.48;14.60;97046.78;5049330;28;20472;-77
2022/03/30 08:22:31;;;;;;;12.30;8.00;;;;;;;28.73;14.74;97052.63;5044817;28;20025;-77
2022/03/30 08:25:15;;;;;;;14.88;8.23;;;;;;;27.23;15.40;97053.88;5048315;28;20029;-77
2022/03/30 08:27:41;;;;;;;19.85;9.70;;;;;;;26.76;16.20;97051.78;5053362;28;20063;-77
2022/03/30 08:30:08;;;;;;;17.55;8.27;;;;;;;25.71;17.41;97051.88;5048549;28;20031;-77
2022/03/30 08:32:34;;;;;;;12.18;7.80;;;;;;;27.30;15.13;97047.88;5042393;28;20033;-77
2022/03/30 08:35:03;;;;;;;11.73;7.00;;;;;;;28.55;14.94;97046.38;5044507;28;20092;-77
2022/03/30 08:37:29;;;;;;;14.63;7.85;;;;;;;29.23;13.98;97039.25;5045094;28;20084;-76
2022/03/30 08:39:55;;;;;;;9.68;6.07;;;;;;;29.84;13.59;97033.56;5049027;28;20072;-76
2022/03/30 08:42:22;;;;;;;17.20;8.90;;;;;;;27.33;15.51;97038.44;5032575;28;20120;-77
2022/03/30 08:44:51;;;;;;;11.50;7.03;;;;;;;28.74;14.24;97028.75;5030770;28;20052;-77
2022/03/30 08:47:17;;;;;;;13.13;7.40;;;;;;;29.07;14.18;97025.63;5026444;28;20028;-77
2022/03/30 08:49:47;;;;;;;14.55;9.35;;;;;;;29.01;14.27;97021.94;5050527;28;20025;-77
2022/03/30 08:52:14;;;;;;;11.95;7.28;;;;;;;27.59;15.10;97031.06;5047501;28;20029;-76
2022/03/30 08:54:44;;;;;;;14.00;8.23;;;;;;;28.32;15.32;97027.53;5044322;28;20464;-76
2022/03/30 08:57:12;;;;;;;14.63;8.88;;;;;;;29.00;14.70;97022.44;5046386;28;20108;-77
2022/03/30 08:59:38;;;;;;;13.57;8.18;;;;;;;29.69;13.77;97027.97;5047050;28;20064;-76
2022/03/30 09:02:07;;;;;;;13.05;7.93;;;;;;;30.34;13.46;97020.69;5051662;28;20035;-77
2022/03/30 09:04:33;;;;;;;11.77;7.82;;;;;;;31.10;12.75;97018.16;5051116;28;20455;-76
2022/03/30 09:07:00;;;;;;;12.57;7.18;;;;;;;31.27;12.39;97022.63;5043172;28;20041;-77
2022/03/30 09:09:32;;;;;;;10.68;6.75;;;;;;;31.10;12.32;97024.59;5049136;28;20489;-77
2022/03/30 09:12:00;;;;;;;12.77;7.28;;;;;;;31.14;12.69;97022.31;5049127;28;20037;-76
2022/03/30 09:14:31;;;;;;;11.45;7.28;;;;;;;31.38;12.75;97027.56;5035551;28;20037;-76
2022/03/30 09:17:08;;;;;;;9.85;6.35;;;;;;;31.69;12.47;97024.63;5044789;28;20029;-77
2022/03/30 09:19:40;;;;;;;9.68;5.82;;;;;;;32.04;12.53;97015.72;5038501;28;20033;-77
2022/03/30 09:22:08;;;;;;;10.68;6.60;;;;;;;32.04;12.08;97013.63;5042083;28;20094;-76
2022/03/30 09:24:36;;;;;;;9.60;6.00;;;;;;;32.27;12.00;97016.50;5049173;28;20159;-77
2022/03/30 09:27:05;;;;;;;8.80;6.18;;;;;;;32.40;12.02;97013.91;5041613;28;20510;-77
2022/03/30 09:29:36;;;;;;;8.10;5.78;;;;;;;32.58;11.89;97016.28;5049025;28;20040;-76
2022/03/30 09:32:04;;;;;;;10.27;6.47;;;;;;;32.22;12.13;97011.59;5048333;28;20079;-77
2022/03/30 09:34:35;;;;;;;12.15;7.57;;;;;;;31.75;12.56;97011.22;5048505;28;20304;-77
2022/03/30 09:37:02;;;;;;;11.32;7.43;;;;;;;31.43;12.13;97004.16;5045973;28;20489;-76
2022/03/30 09:39:35;;;;;;;11.02;7.05;;;;;;;31.71;12.34;96995.72;5024457;28;20041;-77
2022/03/30 09:42:03;;;;;;;13.02;6.90;;;;;;;32.16;12.27;97003.06;5052652;28;20039;-77
2022/03/30 09:44:31;;;;;;;9.60;5.72;;;;;;;32.47;12.09;96990.66;5053196;28;20033;-77
2022/03/30 09:47:05;;;;;;;16.23;10.52;;;;;;;29.56;13.36;96990.00;5051324;28;20039;-77
2022/03/30 09:49:37;;;;;;;11.70;7.55;;;;;;;30.06;14.24;96988.47;5049130;28;20044;-77
2022/03/30 09:52:16;;;;;;;10.63;6.75;;;;;;;30.61;13.63;96982.53;5049314;28;20029;-77
2022/03/30 09:55:04;;;;;;;15.35;8.63;;;;;;;30.35;12.54;96984.63;5041643;28;20033;-77
2022/03/30 09:57:40;;;;;;;11.73;7.78;;;;;;;28.72;14.61;96979.66;5047436;28;20488;-76
2022/03/30 10:00:14;;;;;;;10.63;7.82;;;;;;;28.46;14.66;96973.09;5050000;28;20515;-77
2022/03/30 10:02:43;;;;;;;11.57;7.25;;;;;;;29.41;14.69;96971.06;5045729;28;20465;-77
2022/03/30 10:05:12;;;;;;;11.13;7.45;;;;;;;29.92;14.10;96961.84;5048752;28;20150;-77
2022/03/30 10:07:38;;;;;;;12.30;7.13;;;;;;;30.52;13.73;96960.06;5045127;28;20662;-76
2022/03/30 10:10:08;;;;;;;13.30;8.13;;;;;;;30.17;13.74;96965.16;5051009;28;20025;-77
2022/03/30 10:12:35;;;;;;;9.67;6.60;;;;;;;29.26;14.03;96961.91;5050063;28;20021;-77
2022/03/30 10:15:01;;;;;;;12.40;8.13;;;;;;;29.59;14.59;96952.25;5047308;28;20025;-78
2022/03/30 10:17:31;;;;;;;11.25;6.15;;;;;;;30.06;13.40;96951.66;5051230;28;20074;-77
2022/03/30 10:20:01;;;;;;;8.55;6.18;;;;;;;29.62;13.81;96946.34;5036156;28;20021;-77
2022/03/30 10:22:34;;;;;;;11.55;6.47;;;;;;;28.53;14.54;96950.09;5052770;28;20503;-78
2022/03/30 10:25:23;;;;;;;12.93;7.50;;;;;;;29.25;14.15;96936.94;5048016;28;20041;-77
2022/03/30 10:27:53;;;;;;;11.85;6.45;;;;;;;30.04;13.81;96938.03;5043053;28;20154;-76
2022/03/30 10:30:31;;;;;;;13.85;8.60;;;;;;;26.93;15.44;96939.50;5044915;28;20029;-77
2022/03/30 10:33:00;;;;;;;15.52;8.27;;;;;;;27.56;16.20;96943.84;5048555;28;20033;-77
2022/03/30 10:35:46;;;;;;;10.73;6.65;;;;;;;29.23;14.68;96928.97;5046636;28;20400;-77
2022/03/30 10:38:14;;;;;;;12.70;7.40;;;;;;;27.83;15.62;96926.63;5047696;28;20771;-77
2022/03/30 10:40:41;;;;;;;11.75;7.68;;;;;;;27.30;15.59;96935.91;5050724;28;20063;-77
2022/03/30 10:43:24;;;;;;;11.23;6.40;;;;;;;27.04;16.37;96922.81;5046441;28;20033;-77
2022/03/30 10:45:57;;;;;;;12.80;8.40;;;;;;;26.50;16.72;96919.09;5047441;28;20090;-77
2022/03/30 10:48:37;;;;;;;12.75;7.10;;;;;;;26.81;16.78;96927.22;5048115;28;20033;-77
2022/03/30 10:51:17;;;;;;;20.97;12.50;;;;;;;25.21;17.01;96921.97;5047599;28;20041;-77
2022/03/30 10:53:50;;;;;;;15.43;10.17;;;;;;;26.85;16.50;96915.75;5046037;28;20028;-77
2022/03/30 10:56:18;;;;;;;14.95;8.90;;;;;;;27.06;15.53;96914.66;5044622;28;20127;-77
2022/03/30 10:58:49;;;;;;;10.55;6.63;;;;;;;29.34;14.48;96900.81;5055982;28;20037;-76
2022/03/30 11:01:24;;;;;;;10.57;6.72;;;;;;;30.70;13.55;96902.97;5048060;28;20554;-76
2022/03/30 11:04:10;;;;;;;9.27;6.35;;;;;;;31.96;12.75;96906.72;5034457;28;20052;-77
2022/03/30 11:06:44;;;;;;;7.78;5.68;;;;;;;32.66;12.20;96903.59;5050258;28;20474;-77
2022/03/30 11:09:28;;;;;;;9.48;6.68;;;;;;;32.55;11.73;96893.03;5047469;28;20017;-77
2022/03/30 11:12:08;;;;;;;9.10;5.97;;;;;;;32.37;11.98;96892.78;5049480;28;20040;-77
2022/03/30 11:14:39;;;;;;;9.70;6.00;;;;;;;31.68;12.02;96892.50;5055069;28;20029;-77
2022/03/30 11:17:06;;;;;;;;;;;;;;;31.80;12.90;96896.13;5053464;28;20507;-77
2022/03/30 11:19:48;;;;;;;6.30;4.35;;;;;;;32.62;12.67;96886.81;5050613;28;19917;-77
2022/03/30 11:22:16;;;;;;;8.45;5.18;;;;;;;33.07;11.95;96883.84;5046694;28;20048;-77
2022/03/30 11:24:44;;;;;;;6.15;4.80;;;;;;;33.20;11.56;96881.97;5050033;28;20025;-77
2022/03/30 11:27:10;;;;;;;6.68;4.40;;;;;;;33.04;11.55;96879.19;5046775;28;20036;-77
2022/03/30 11:29:44;;;;;;;10.70;5.93;;;;;;;32.57;11.82;96881.91;5031498;28;20080;-77
2022/03/30 11:32:22;;;;;;;9.65;5.13;;;;;;;31.61;13.14;96880.88;5052032;28;20052;-76
2022/03/30 11:34:54;;;;;;;8.10;4.85;;;;;;;31.92;12.43;96881.44;5047169;28;20047;-77